createdAt,value
2022-12-19T00:01:20.419Z,29.26
2022-12-19T00:03:46.857Z,29.84
2022-12-19T00:06:13.245Z,29.30
2022-12-19T00:08:39.632Z,28.50
2022-12-19T00:11:06.065Z,29.30
2022-12-19T00:13:33.650Z,29.36
2022-12-19T00:16:07.280Z,28.08
2022-12-19T00:18:33.678Z,28.71
2022-12-19T00:21:00.080Z,28.22
2022-12-19T00:23:26.432Z,27.82
2022-12-19T00:25:52.837Z,28.05
2022-12-19T00:28:20.225Z,28.28
2022-12-19T00:30:47.813Z,27.95
2022-12-19T00:33:14.171Z,28.35
2022-12-19T00:35:40.552Z,28.65
2022-12-19T00:38:06.936Z,28.14
2022-12-19T00:40:33.322Z,29.13
2022-12-19T00:42:59.701Z,28.01
2022-12-19T00:45:27.115Z,28.58
2022-12-19T00:47:55.549Z,29.28
2022-12-19T00:50:21.894Z,28.78
2022-12-19T00:52:48.236Z,28.07
2022-12-19T00:55:18.410Z,28.10
2022-12-19T00:57:45.646Z,29.33
2022-12-19T01:00:11.988Z,28.94
2022-12-19T01:02:38.513Z,28.96
2022-12-19T01:05:05.024Z,29.40
2022-12-19T01:07:31.376Z,29.17
2022-12-19T01:09:57.755Z,29.28
2022-12-19T01:12:24.573Z,29.63
2022-12-19T01:14:51.387Z,28.95
2022-12-19T01:17:17.757Z,29.59
2022-12-19T01:19:44.849Z,30.37
2022-12-19T01:22:11.290Z,30.27
2022-12-19T01:24:37.775Z,28.67
2022-12-19T01:27:04.182Z,29.01
2022-12-19T01:29:30.538Z,29.36
2022-12-19T01:31:58.504Z,29.16
2022-12-19T01:34:24.921Z,28.23
2022-12-19T01:36:51.280Z,29.01
2022-12-19T01:39:17.661Z,29.25
2022-12-19T01:41:44.011Z,27.59
2022-12-19T01:44:10.343Z,27.97
2022-12-19T01:46:36.787Z,28.72
2022-12-19T01:49:03.235Z,29.48
2022-12-19T01:51:29.620Z,28.84
2022-12-19T01:53:55.971Z,29.00
2022-12-19T01:56:22.296Z,28.30
2022-12-19T01:58:48.701Z,28.61
2022-12-19T02:01:15.159Z,27.79
2022-12-19T02:03:41.591Z,28.71
2022-12-19T02:06:07.989Z,28.87
2022-12-19T02:08:34.377Z,28.22
2022-12-19T02:11:01.366Z,28.86
2022-12-19T02:13:27.798Z,29.11
2022-12-19T02:15:54.189Z,29.17
2022-12-19T02:18:20.549Z,29.41
2022-12-19T02:20:46.889Z,28.83
2022-12-19T02:23:13.263Z,29.99
2022-12-19T02:25:40.224Z,31.90
2022-12-19T02:28:06.816Z,30.67
2022-12-19T02:30:33.443Z,29.08
2022-12-19T02:32:59.838Z,30.34
2022-12-19T02:35:26.219Z,31.91
2022-12-19T02:37:52.604Z,30.75
2022-12-19T02:40:20.440Z,30.11
2022-12-19T02:42:46.840Z,31.19
2022-12-19T02:45:13.210Z,31.84
2022-12-19T02:47:43.143Z,31.38
2022-12-19T02:50:09.496Z,31.64
2022-12-19T02:52:35.882Z,32.91
2022-12-19T02:55:02.280Z,31.05
2022-12-19T02:57:28.636Z,30.37
2022-12-19T02:59:55.389Z,29.26
2022-12-19T03:02:23.397Z,29.24
2022-12-19T03:04:49.849Z,29.20
2022-12-19T03:07:16.240Z,28.93
2022-12-19T03:09:42.851Z,29.12
2022-12-19T03:12:11.623Z,29.24
2022-12-19T03:14:40.532Z,29.17
2022-12-19T03:17:06.962Z,29.29
2022-12-19T03:19:33.397Z,27.93
2022-12-19T03:21:59.756Z,29.03
2022-12-19T03:24:26.402Z,28.95
2022-12-19T03:26:52.831Z,28.76
2022-12-19T03:29:19.187Z,28.84
2022-12-19T03:31:45.521Z,30.05
2022-12-19T03:34:11.864Z,30.62
2022-12-19T03:36:38.257Z,31.75
2022-12-19T03:39:04.969Z,30.09
2022-12-19T03:41:31.364Z,30.92
2022-12-19T03:43:57.723Z,30.72
2022-12-19T03:46:24.308Z,30.70
2022-12-19T03:48:50.681Z,31.73
2022-12-19T03:51:17.071Z,32.32
2022-12-19T03:53:43.421Z,32.36
2022-12-19T03:56:09.801Z,32.39
2022-12-19T03:58:36.210Z,32.30
2022-12-19T04:01:02.601Z,32.46
2022-12-19T04:03:29.060Z,32.69
2022-12-19T04:05:55.483Z,31.78
2022-12-19T04:08:21.900Z,32.56
2022-12-19T04:10:48.288Z,32.37
2022-12-19T04:13:14.663Z,31.15
2022-12-19T04:15:41.087Z,30.62
2022-12-19T04:18:07.497Z,30.39
2022-12-19T04:20:34.322Z,30.07
2022-12-19T04:23:00.726Z,31.28
2022-12-19T04:25:29.504Z,30.09
2022-12-19T04:27:56.105Z,32.24
2022-12-19T04:30:22.490Z,31.89
2022-12-19T04:32:48.855Z,31.67
2022-12-19T04:35:15.223Z,31.25
2022-12-19T04:37:41.588Z,31.14
2022-12-19T04:40:07.958Z,31.63
2022-12-19T04:42:34.305Z,30.56
2022-12-19T04:45:00.654Z,29.88
2022-12-19T04:47:27.033Z,30.56
2022-12-19T04:49:53.391Z,29.85
2022-12-19T04:52:19.788Z,30.48
2022-12-19T04:54:46.144Z,30.14
2022-12-19T04:57:12.524Z,30.65
2022-12-19T04:59:38.911Z,30.11
2022-12-19T05:02:05.363Z,29.34
2022-12-19T05:04:31.853Z,31.80
2022-12-19T05:06:58.235Z,30.80
2022-12-19T05:09:25.198Z,28.98
2022-12-19T05:11:51.597Z,29.40
2022-12-19T05:14:17.948Z,30.94
2022-12-19T05:16:44.429Z,31.92
2022-12-19T05:19:10.795Z,30.85
2022-12-19T05:21:37.140Z,31.18
2022-12-19T05:24:03.540Z,31.44
2022-12-19T05:26:29.923Z,32.09
2022-12-19T05:28:56.354Z,32.23
2022-12-19T05:31:22.774Z,32.72
2022-12-19T05:33:49.397Z,31.64
2022-12-19T05:36:15.788Z,31.59
2022-12-19T05:38:42.154Z,31.49
2022-12-19T05:41:08.492Z,31.81
2022-12-19T05:43:34.880Z,31.16
2022-12-19T05:46:01.294Z,31.41
2022-12-19T05:48:27.680Z,31.76
2022-12-19T05:50:54.067Z,30.29
2022-12-19T05:53:24.611Z,30.86
2022-12-19T05:55:52.337Z,31.10
2022-12-19T05:58:18.762Z,31.48
2022-12-19T06:00:45.162Z,30.53
2022-12-19T06:03:11.676Z,30.64
2022-12-19T06:05:38.142Z,31.61
2022-12-19T06:08:04.522Z,31.43
2022-12-19T06:10:30.940Z,30.67
2022-12-19T06:12:57.305Z,30.45
2022-12-19T06:15:23.660Z,30.54
2022-12-19T06:17:50.006Z,30.69
2022-12-19T06:20:16.374Z,31.16
2022-12-19T06:22:42.783Z,31.17
2022-12-19T06:25:09.182Z,32.37
2022-12-19T06:27:35.550Z,32.57
2022-12-19T06:30:01.914Z,32.18
2022-12-19T06:32:28.267Z,32.30
2022-12-19T06:35:04.076Z,31.13
2022-12-19T06:37:30.668Z,31.87
2022-12-19T06:39:57.009Z,32.06
2022-12-19T06:42:23.387Z,32.37
2022-12-19T06:44:49.788Z,33.36
2022-12-19T06:47:16.137Z,34.39
2022-12-19T06:49:42.479Z,33.96
2022-12-19T06:52:09.338Z,33.04
2022-12-19T06:54:35.810Z,33.04
2022-12-19T06:57:02.216Z,33.67
2022-12-19T06:59:28.578Z,33.11
2022-12-19T07:01:55.051Z,32.31
2022-12-19T07:04:21.768Z,32.21
2022-12-19T07:06:49.410Z,32.95
2022-12-19T07:09:15.933Z,32.02
2022-12-19T07:11:42.278Z,32.38
2022-12-19T07:14:08.659Z,33.51
2022-12-19T07:16:37.227Z,33.39
2022-12-19T07:19:03.677Z,33.18
2022-12-19T07:21:30.035Z,33.48
2022-12-19T07:23:56.414Z,32.72
2022-12-19T07:26:22.801Z,32.52
2022-12-19T07:28:49.160Z,32.63
2022-12-19T07:31:15.586Z,32.03
2022-12-19T07:33:41.949Z,32.70
2022-12-19T07:36:08.321Z,32.01
2022-12-19T07:38:34.713Z,32.02
2022-12-19T07:41:01.116Z,32.16
2022-12-19T07:43:27.513Z,32.80
2022-12-19T07:45:53.946Z,32.95
2022-12-19T07:48:20.385Z,32.72
2022-12-19T07:50:46.750Z,33.06
2022-12-19T07:53:13.142Z,32.91
2022-12-19T07:55:39.545Z,32.87
2022-12-19T07:58:05.936Z,32.91
2022-12-19T08:00:32.340Z,33.91
2022-12-19T08:02:58.899Z,35.18
2022-12-19T08:05:25.381Z,33.67
2022-12-19T08:07:51.803Z,33.20
2022-12-19T08:10:18.181Z,33.83
2022-12-19T08:12:44.526Z,32.81
2022-12-19T08:15:11.007Z,33.25
2022-12-19T08:17:37.783Z,33.86
2022-12-19T08:20:04.140Z,34.16
2022-12-19T08:22:30.676Z,33.60
2022-12-19T08:24:57.067Z,33.03
2022-12-19T08:27:23.471Z,33.76
2022-12-19T08:29:49.869Z,34.43
2022-12-19T08:32:20.774Z,34.72
2022-12-19T08:34:47.711Z,34.09
2022-12-19T08:37:14.095Z,33.17
2022-12-19T08:39:40.506Z,32.89
2022-12-19T08:42:06.912Z,32.24
2022-12-19T08:44:33.304Z,32.39
2022-12-19T08:46:59.686Z,32.28
2022-12-19T08:49:26.088Z,32.43
2022-12-19T08:51:52.492Z,32.46
2022-12-19T08:54:18.866Z,31.28
2022-12-19T08:56:46.855Z,32.17
2022-12-19T08:59:13.597Z,32.80
2022-12-19T09:01:42.413Z,32.97
2022-12-19T09:05:47.727Z,32.76
2022-12-19T09:06:55.293Z,32.80
2022-12-19T09:09:21.644Z,32.44
2022-12-19T09:11:48.438Z,31.84
2022-12-19T09:14:14.912Z,31.87
2022-12-19T09:16:47.006Z,32.08
2022-12-19T09:19:13.496Z,31.84
2022-12-19T09:21:39.916Z,32.21
2022-12-19T09:24:08.145Z,31.76
2022-12-19T09:26:34.623Z,31.91
2022-12-19T09:29:01.044Z,31.21
2022-12-19T09:31:28.807Z,30.81
2022-12-19T09:33:55.183Z,30.57
2022-12-19T09:36:21.548Z,30.55
2022-12-19T09:38:47.960Z,31.60
2022-12-19T09:41:15.801Z,30.76
2022-12-19T09:43:44.421Z,30.17
2022-12-19T09:46:10.811Z,31.54
2022-12-19T09:48:37.174Z,31.39
2022-12-19T09:51:09.610Z,31.51
2022-12-19T09:53:37.334Z,30.23
2022-12-19T09:56:03.690Z,30.65
2022-12-19T09:58:30.054Z,30.47
2022-12-19T10:00:59.680Z,29.95
2022-12-19T10:03:32.272Z,30.02
2022-12-19T10:07:09.383Z,30.22
2022-12-19T10:09:26.851Z,28.37
2022-12-19T10:12:43.497Z,28.02
2022-12-19T10:14:25.598Z,27.98
2022-12-19T10:17:22.484Z,26.90
2022-12-19T10:19:39.936Z,27.36
2022-12-19T10:22:18.254Z,25.98
2022-12-19T10:24:46.478Z,27.16
2022-12-19T10:27:30.214Z,26.93
2022-12-19T10:29:56.633Z,26.65
2022-12-19T10:32:23.038Z,26.74
2022-12-19T10:34:49.442Z,26.26
2022-12-19T10:37:24.360Z,26.26
2022-12-19T10:39:55.958Z,27.69
2022-12-19T10:42:22.406Z,29.00
2022-12-19T10:44:48.777Z,29.69
2022-12-19T10:47:15.190Z,30.30
2022-12-19T10:49:41.601Z,29.09
2022-12-19T10:52:08.057Z,28.82
2022-12-19T10:54:34.463Z,28.09
2022-12-19T10:57:07.394Z,28.88
2022-12-19T10:59:33.800Z,28.74
2022-12-19T11:02:01.191Z,27.63
2022-12-19T11:04:28.170Z,28.13
2022-12-19T11:06:54.525Z,26.57
2022-12-19T11:09:21.000Z,27.86
2022-12-19T11:14:30.409Z,27.60
2022-12-19T11:19:18.740Z,27.48
2022-12-19T11:23:40.153Z,27.10
2022-12-19T11:29:31.808Z,29.67
2022-12-19T11:29:37.162Z,28.42
2022-12-19T11:30:06.588Z,29.24
2022-12-19T11:30:25.886Z,29.09
2022-12-19T11:33:58.329Z,28.55
2022-12-19T11:36:24.703Z,28.61
2022-12-19T11:38:51.054Z,25.84
2022-12-19T11:41:17.404Z,26.85
2022-12-19T11:43:45.918Z,27.27
2022-12-19T11:46:17.658Z,26.10
2022-12-19T11:48:47.663Z,26.94
2022-12-19T11:51:14.017Z,28.19
2022-12-19T11:53:40.383Z,27.43
2022-12-19T11:56:08.109Z,25.99
2022-12-19T11:58:43.032Z,25.65
2022-12-19T12:01:10.031Z,26.43
2022-12-19T12:03:36.497Z,27.59
2022-12-19T12:06:02.911Z,27.76
2022-12-19T12:10:35.929Z,27.75
2022-12-19T12:18:40.779Z,26.07
2022-12-19T12:24:20.693Z,24.59
2022-12-19T12:30:12.888Z,26.41
2022-12-19T12:31:19.068Z,25.17
2022-12-19T12:31:27.172Z,26.62
2022-12-19T12:31:38.596Z,25.49
2022-12-19T12:31:49.891Z,25.28
2022-12-19T12:32:06.317Z,24.37
2022-12-19T12:35:32.783Z,25.96
2022-12-19T12:38:59.283Z,25.58
2022-12-19T12:41:25.700Z,24.98
2022-12-19T12:43:52.110Z,27.79
2022-12-19T12:46:18.538Z,27.36
2022-12-19T12:48:44.939Z,27.22
2022-12-19T12:51:11.296Z,25.32
2022-12-19T12:53:37.642Z,25.17
2022-12-19T12:56:06.598Z,24.97
2022-12-19T12:58:33.626Z,26.67
2022-12-19T13:01:00.056Z,24.42
2022-12-19T13:03:26.527Z,24.95
2022-12-19T13:05:52.945Z,25.31
2022-12-19T13:08:19.316Z,26.59
2022-12-19T13:10:45.701Z,26.93
2022-12-19T13:13:15.701Z,26.71
2022-12-19T13:15:43.819Z,27.09
2022-12-19T13:18:10.179Z,26.78
2022-12-19T13:20:36.572Z,26.36
2022-12-19T13:23:02.943Z,25.46
2022-12-19T13:25:29.331Z,27.80
2022-12-19T13:27:57.680Z,29.00
2022-12-19T13:30:25.094Z,28.37
2022-12-19T13:32:51.529Z,28.22
2022-12-19T13:36:38.932Z,27.98
2022-12-19T13:40:00.504Z,26.92
2022-12-19T13:40:50.585Z,26.68
2022-12-19T13:43:16.946Z,27.15
2022-12-19T13:45:43.385Z,26.92
2022-12-19T13:48:09.814Z,26.73
2022-12-19T13:50:37.049Z,27.39
2022-12-19T13:53:03.443Z,27.28
2022-12-19T13:55:29.798Z,28.04
2022-12-19T13:57:56.183Z,27.94
2022-12-19T14:00:22.583Z,28.34
2022-12-19T14:02:49.231Z,28.90
2022-12-19T14:05:15.782Z,28.98
2022-12-19T14:07:42.149Z,29.72
2022-12-19T14:11:35.949Z,28.79
2022-12-19T14:13:53.115Z,28.14
2022-12-19T14:15:41.289Z,27.92
2022-12-19T14:18:42.857Z,28.60
2022-12-19T14:22:10.257Z,27.71
2022-12-19T14:23:43.636Z,27.39
2022-12-19T14:28:21.289Z,26.63
2022-12-19T14:28:57.116Z,27.09
2022-12-19T14:31:23.545Z,28.80
2022-12-19T14:36:36.245Z,27.15
2022-12-19T14:39:22.941Z,27.66
2022-12-19T14:41:49.006Z,26.38
2022-12-19T14:53:08.459Z,27.29
2022-12-19T14:53:52.227Z,27.35
2022-12-19T14:54:23.410Z,27.61
2022-12-19T14:54:31.209Z,27.54
2022-12-19T14:56:19.521Z,27.72
2022-12-19T14:58:53.360Z,26.54
2022-12-19T15:01:09.086Z,26.52
2022-12-19T15:03:37.732Z,25.14
2022-12-19T15:07:05.897Z,27.34
2022-12-19T15:10:58.224Z,26.35
2022-12-19T15:11:54.066Z,25.03
2022-12-19T15:14:50.663Z,25.67
2022-12-19T15:17:10.081Z,23.08
2022-12-19T15:19:36.440Z,20.95
2022-12-19T15:22:02.815Z,21.92
2022-12-19T15:24:29.184Z,21.09
2022-12-19T15:26:55.841Z,20.20
2022-12-19T15:29:22.502Z,23.36
2022-12-19T15:31:48.979Z,24.44
2022-12-19T15:34:34.082Z,24.48
2022-12-19T15:37:01.701Z,21.54
2022-12-19T15:39:28.063Z,22.32
2022-12-19T15:41:54.419Z,22.45
2022-12-19T15:44:20.813Z,21.48
2022-12-19T15:46:49.415Z,23.51
2022-12-19T15:49:16.129Z,21.28
2022-12-19T15:51:42.536Z,19.38
2022-12-19T15:54:46.760Z,19.78
2022-12-19T15:56:55.289Z,17.91
2022-12-19T15:59:21.711Z,18.39
2022-12-19T16:01:48.147Z,20.31
2022-12-19T16:04:14.800Z,21.12
2022-12-19T16:06:41.366Z,19.77
2022-12-19T16:09:07.748Z,18.70
2022-12-19T16:11:34.096Z,18.58
2022-12-19T16:14:00.446Z,17.88
2022-12-19T16:16:26.879Z,17.37
2022-12-19T16:18:53.288Z,16.27
2022-12-19T16:21:19.649Z,15.67
2022-12-19T16:23:46.002Z,15.64
2022-12-19T16:26:12.370Z,16.09
2022-12-19T16:28:38.721Z,14.39
2022-12-19T16:31:05.164Z,14.07
2022-12-19T16:33:31.559Z,15.45
2022-12-19T16:36:06.469Z,15.03
2022-12-19T16:38:33.551Z,14.15
2022-12-19T16:41:00.114Z,14.27
2022-12-19T16:43:26.515Z,12.85
2022-12-19T16:45:55.724Z,12.71
2022-12-19T16:48:26.315Z,13.12
2022-12-19T16:50:52.673Z,13.84
2022-12-19T16:53:19.098Z,14.00
2022-12-19T16:55:45.532Z,13.88
2022-12-19T16:58:11.907Z,12.86
2022-12-19T17:00:38.313Z,13.77
2022-12-19T17:03:04.729Z,14.70
2022-12-19T17:05:31.230Z,15.26
2022-12-19T17:07:57.651Z,14.60
2022-12-19T17:10:26.401Z,14.96
2022-12-19T17:12:52.981Z,16.47
2022-12-19T17:15:19.382Z,15.70
2022-12-19T17:17:45.818Z,15.96
2022-12-19T17:20:12.165Z,16.17
2022-12-19T17:22:38.559Z,14.65
2022-12-19T17:25:04.923Z,15.18
2022-12-19T17:27:31.279Z,14.24
2022-12-19T17:29:57.700Z,13.03
2022-12-19T17:32:24.780Z,13.27
2022-12-19T17:34:51.292Z,12.74
2022-12-19T17:37:17.650Z,12.82
2022-12-19T17:39:44.034Z,13.96
2022-12-19T17:42:10.402Z,13.38
2022-12-19T17:44:36.812Z,13.45
2022-12-19T17:47:03.217Z,13.23
2022-12-19T17:49:29.578Z,12.70
2022-12-19T17:51:55.918Z,12.13
2022-12-19T17:54:22.315Z,11.78
2022-12-19T17:56:48.747Z,11.40
2022-12-19T17:59:15.103Z,14.77
2022-12-19T18:01:41.559Z,14.21
2022-12-19T18:04:08.135Z,14.67
2022-12-19T18:06:34.478Z,14.30
2022-12-19T18:09:00.814Z,14.55
2022-12-19T18:11:27.244Z,14.58
2022-12-19T18:13:53.675Z,15.36
2022-12-19T18:16:20.138Z,14.81
2022-12-19T18:18:46.577Z,14.64
2022-12-19T18:21:12.936Z,13.33
2022-12-19T18:23:39.324Z,12.76
2022-12-19T18:26:05.717Z,13.23
2022-12-19T18:28:32.080Z,12.66
2022-12-19T18:30:58.541Z,12.24
2022-12-19T18:33:24.984Z,12.40
2022-12-19T18:35:51.340Z,12.54
2022-12-19T18:38:17.732Z,12.69
2022-12-19T18:40:44.148Z,12.80
2022-12-19T18:43:10.486Z,12.88
2022-12-19T18:45:36.998Z,13.03
2022-12-19T18:48:03.482Z,12.80
2022-12-19T18:50:29.894Z,13.37
2022-12-19T18:52:56.296Z,13.27
2022-12-19T18:55:22.681Z,14.33
2022-12-19T18:57:49.069Z,13.72
2022-12-19T19:00:15.434Z,13.35
2022-12-19T19:02:41.905Z,13.00
2022-12-19T19:05:08.395Z,12.37
2022-12-19T19:07:34.779Z,12.37
2022-12-19T19:10:01.153Z,11.81
2022-12-19T19:12:27.547Z,12.71
2022-12-19T19:14:53.933Z,12.56
2022-12-19T19:17:20.349Z,12.45
2022-12-19T19:19:46.743Z,12.54
2022-12-19T19:22:13.114Z,13.13
2022-12-19T19:24:39.525Z,13.57
2022-12-19T19:27:05.929Z,13.45
2022-12-19T19:29:32.286Z,13.82
2022-12-19T19:31:58.688Z,14.81
2022-12-19T19:34:25.046Z,14.23
2022-12-19T19:36:51.471Z,13.94
2022-12-19T19:39:17.869Z,13.71
2022-12-19T19:41:44.243Z,13.45
2022-12-19T19:44:10.647Z,13.18
2022-12-19T19:46:37.123Z,12.77
2022-12-19T19:49:03.568Z,12.44
2022-12-19T19:51:29.944Z,13.21
2022-12-19T19:53:56.307Z,12.29
2022-12-19T19:56:22.715Z,12.28
2022-12-19T19:58:49.109Z,13.47
2022-12-19T20:01:15.576Z,12.75
2022-12-19T20:03:42.124Z,12.26
2022-12-19T20:06:09.281Z,12.59
2022-12-19T20:08:39.693Z,13.33
2022-12-19T20:11:06.710Z,12.94
2022-12-19T20:13:33.103Z,12.40
2022-12-19T20:15:59.525Z,12.90
2022-12-19T20:18:25.968Z,13.24
2022-12-19T20:20:52.309Z,13.29
2022-12-19T20:23:18.708Z,14.79
2022-12-19T20:25:45.057Z,17.41
2022-12-19T20:28:11.461Z,17.36
2022-12-19T20:30:37.867Z,18.10
2022-12-19T20:33:04.267Z,17.33
2022-12-19T20:35:30.643Z,19.15
2022-12-19T20:37:57.010Z,22.86
2022-12-19T20:40:23.404Z,20.05
2022-12-19T20:42:49.778Z,18.45
2022-12-19T20:45:16.298Z,17.19
2022-12-19T20:47:42.705Z,16.14
2022-12-19T20:50:09.095Z,11.65
2022-12-19T20:52:35.523Z,9.70
2022-12-19T20:55:01.881Z,11.74
2022-12-19T20:57:28.266Z,12.87
2022-12-19T20:59:54.653Z,9.92
2022-12-19T21:02:21.124Z,9.56
2022-12-19T21:04:47.695Z,8.70
2022-12-19T21:07:14.148Z,8.93
2022-12-19T21:09:40.508Z,8.43
2022-12-19T21:12:07.056Z,8.29
2022-12-19T21:14:33.413Z,8.17
2022-12-19T21:16:59.811Z,8.57
2022-12-19T21:19:26.219Z,8.28
2022-12-19T21:21:52.597Z,8.81
2022-12-19T21:24:19.058Z,9.73
2022-12-19T21:26:45.451Z,10.06
2022-12-19T21:29:11.856Z,9.38
2022-12-19T21:31:38.258Z,9.27
2022-12-19T21:34:04.657Z,9.46
2022-12-19T21:36:31.109Z,9.54
2022-12-19T21:38:57.539Z,9.63
2022-12-19T21:41:24.011Z,10.03
2022-12-19T21:43:51.139Z,9.80
2022-12-19T21:46:17.577Z,9.69
2022-12-19T21:48:44.032Z,9.98
2022-12-19T21:51:10.450Z,10.31
2022-12-19T21:53:36.831Z,10.22
2022-12-19T21:56:03.202Z,10.38
2022-12-19T21:58:29.587Z,10.10
2022-12-19T22:00:55.958Z,10.25
2022-12-19T22:03:22.460Z,9.72
2022-12-19T22:05:48.905Z,9.56
2022-12-19T22:08:15.320Z,10.11
2022-12-19T22:10:41.699Z,9.92
2022-12-19T22:13:08.113Z,9.21
2022-12-19T22:15:34.525Z,9.03
2022-12-19T22:18:00.893Z,10.41
2022-12-19T22:20:27.256Z,10.93
2022-12-19T22:22:53.644Z,10.93
2022-12-19T22:25:19.996Z,10.20
2022-12-19T22:27:46.330Z,10.87
2022-12-19T22:30:12.673Z,10.51
2022-12-19T22:32:39.051Z,10.59
2022-12-19T22:35:05.410Z,10.66
2022-12-19T22:37:31.866Z,10.49
2022-12-19T22:39:58.350Z,10.63
2022-12-19T22:42:24.750Z,9.47
2022-12-19T22:44:51.147Z,12.43
2022-12-19T22:47:17.497Z,19.19
2022-12-19T22:49:43.889Z,13.80
2022-12-19T22:52:10.287Z,15.35
2022-12-19T22:54:36.682Z,14.65
2022-12-19T22:57:03.042Z,13.87
2022-12-19T22:59:29.413Z,12.30
2022-12-19T23:01:55.898Z,13.36
2022-12-19T23:04:22.571Z,14.33
2022-12-19T23:06:49.000Z,15.35
2022-12-19T23:09:15.386Z,15.76
2022-12-19T23:11:41.733Z,15.62
2022-12-19T23:14:08.134Z,15.28
2022-12-19T23:16:34.596Z,15.70
2022-12-19T23:19:01.044Z,15.13
2022-12-19T23:21:27.411Z,15.28
2022-12-19T23:23:53.779Z,14.84
2022-12-19T23:26:20.114Z,14.92
2022-12-19T23:28:46.475Z,14.82
2022-12-19T23:31:12.868Z,15.20
2022-12-19T23:33:39.296Z,14.98
2022-12-19T23:36:05.722Z,15.17
2022-12-19T23:38:32.119Z,14.34
2022-12-19T23:40:58.488Z,13.83
2022-12-19T23:43:24.856Z,13.01
2022-12-19T23:45:51.469Z,11.70
2022-12-19T23:48:17.846Z,11.18
2022-12-19T23:50:44.184Z,10.98
2022-12-19T23:53:10.556Z,11.50
2022-12-19T23:55:36.931Z,11.93
2022-12-19T23:58:07.879Z,12.07
